Time;durP1;ratioP1;P1;durP2;ratioP2;P2;SDS_P1;SDS_P2;PMS_P1;PMS_P2;Temp;Humidity;BMP_temperature;BMP_pressure;BME280_temperature;BME280_humidity;BME280_pressure;Samples;Min_cycle;Max_cycle;Signal;HPM_P1;HPM_P2
2023/01/15 00:01:27;;;;;;;;;;;18.70;53.00;;;;;;5025071;28;19924;-53
2023/01/15 00:03:52;;;;;;;;;;;18.70;53.20;;;;;;5012651;28;19921;-53
2023/01/15 00:06:18;;;;;;;;;;;18.70;53.20;;;;;;5010945;28;19910;-53
2023/01/15 00:08:43;;;;;;;;;;;18.70;53.20;;;;;;5024544;28;20401;-54
2023/01/15 00:11:09;;;;;;;;;;;18.70;53.20;;;;;;5015800;28;19910;-54
2023/01/15 00:13:34;;;;;;;;;;;18.70;53.20;;;;;;5012579;28;19913;-54
2023/01/15 00:16:06;;;;;;;;;;;18.70;53.20;;;;;;5012661;28;19945;-53
2023/01/15 00:18:32;;;;;;;;;;;18.70;53.30;;;;;;5018324;28;19920;-53
2023/01/15 00:21:01;;;;;;;;;;;18.60;53.20;;;;;;5010492;28;20358;-53
2023/01/15 00:28:56;;;;;;;;;;;18.60;53.20;;;;;;5041344;28;19932;-53
2023/01/15 00:31:21;;;;;;;;;;;18.60;53.30;;;;;;5027151;28;19917;-53
2023/01/15 00:33:46;;;;;;;;;;;18.50;53.20;;;;;;5021818;28;20627;-53
2023/01/15 00:36:12;;;;;;;;;;;18.50;53.20;;;;;;5013237;28;20357;-53
2023/01/15 00:38:37;;;;;;;;;;;18.50;53.20;;;;;;5013364;28;19979;-53
2023/01/15 00:41:03;;;;;;;;;;;18.50;53.30;;;;;;5002607;28;19913;-53
2023/01/15 00:43:28;;;;;;;;;;;18.50;53.40;;;;;;5006832;28;19956;-54
2023/01/15 00:45:54;;;;;;;;;;;18.50;53.30;;;;;;4998483;28;20278;-53
2023/01/15 00:48:19;;;;;;;;;;;18.50;53.40;;;;;;5001277;28;19920;-53
2023/01/15 00:50:45;;;;;;;;;;;18.40;53.20;;;;;;5013278;28;20012;-54
2023/01/15 00:53:10;;;;;;;;;;;18.50;53.40;;;;;;5015216;28;19983;-53
2023/01/15 00:55:36;;;;;;;;;;;18.40;53.40;;;;;;5022540;28;20340;-53
2023/01/15 00:58:01;;;;;;;;;;;18.40;53.40;;;;;;5008448;28;20551;-53
2023/01/15 01:00:27;;;;;;;;;;;18.40;53.40;;;;;;5006687;28;20332;-53
2023/01/15 01:02:52;;;;;;;;;;;18.30;53.40;;;;;;5009372;28;20278;-54
2023/01/15 01:05:18;;;;;;;;;;;18.30;53.50;;;;;;5013102;28;20675;-53
2023/01/15 01:07:43;;;;;;;;;;;18.30;53.50;;;;;;5016045;28;20281;-53
2023/01/15 01:10:09;;;;;;;;;;;18.30;53.50;;;;;;4994782;28;19921;-53
2023/01/15 01:12:36;;;;;;;;;;;18.30;53.50;;;;;;4999015;28;19920;-53
2023/01/15 01:15:01;;;;;;;;;;;18.30;53.50;;;;;;5044880;28;20008;-53
2023/01/15 01:17:27;;;;;;;;;;;18.20;53.50;;;;;;5022173;28;19971;-53
2023/01/15 01:19:52;;;;;;;;;;;18.20;53.50;;;;;;5023801;28;19917;-53
2023/01/15 01:22:18;;;;;;;;;;;18.20;53.50;;;;;;5016374;28;19917;-53
2023/01/15 01:24:43;;;;;;;;;;;18.20;53.50;;;;;;5020084;28;19916;-53
2023/01/15 01:27:08;;;;;;;;;;;18.20;53.50;;;;;;4997236;28;19993;-53
2023/01/15 01:29:34;;;;;;;;;;;18.20;53.50;;;;;;5007851;28;19921;-53
2023/01/15 01:31:59;;;;;;;;;;;18.10;53.40;;;;;;5012922;28;19917;-53
2023/01/15 01:34:25;;;;;;;;;;;18.10;53.50;;;;;;5009192;28;19921;-53
2023/01/15 01:36:50;;;;;;;;;;;18.10;53.50;;;;;;4999831;28;19913;-53
2023/01/15 01:39:16;;;;;;;;;;;18.10;53.50;;;;;;4993476;28;20365;-53
2023/01/15 01:41:42;;;;;;;;;;;18.00;53.40;;;;;;5003111;28;19918;-53
2023/01/15 01:44:27;;;;;;;;;;;18.00;53.40;;;;;;5009068;28;19930;-53
2023/01/15 01:46:52;;;;;;;;;;;18.00;53.40;;;;;;5015832;28;19918;-53
2023/01/15 01:49:18;;;;;;;;;;;18.00;53.50;;;;;;5000323;28;19960;-53
2023/01/15 01:51:54;;;;;;;;;;;18.00;53.60;;;;;;5014199;28;20282;-53
2023/01/15 01:54:20;;;;;;;;;;;18.00;53.50;;;;;;5013235;28;20328;-52
2023/01/15 01:56:48;;;;;;;;;;;18.00;53.60;;;;;;5015951;28;20011;-53
2023/01/15 01:59:13;;;;;;;;;;;17.90;53.70;;;;;;5039301;28;20000;-54
2023/01/15 02:01:38;;;;;;;;;;;17.90;53.70;;;;;;4999986;28;20267;-53
2023/01/15 02:04:05;;;;;;;;;;;17.90;53.70;;;;;;5007739;28;19913;-53
2023/01/15 02:09:33;;;;;;;;;;;17.90;53.70;;;;;;5031669;28;20340;-53
2023/01/15 02:12:01;;;;;;;;;;;17.90;53.70;;;;;;5021906;28;20005;-53
2023/01/15 02:14:32;;;;;;;;;;;17.90;53.70;;;;;;5045170;28;19920;-53
2023/01/15 02:17:17;;;;;;;;;;;17.90;53.60;;;;;;5015543;28;19921;-53
2023/01/15 02:19:57;;;;;;;;;;;17.90;53.40;;;;;;5005192;28;19925;-53
2023/01/15 02:22:29;;;;;;;;;;;18.00;53.40;;;;;;5012095;28;19922;-53
2023/01/15 02:25:13;;;;;;;;;;;18.00;53.40;;;;;;5042261;28;20377;-54
2023/01/15 02:27:40;;;;;;;;;;;18.10;53.40;;;;;;5001323;28;19945;-54
2023/01/15 02:30:10;;;;;;;;;;;18.20;53.20;;;;;;5044477;28;19946;-53
2023/01/15 02:32:43;;;;;;;;;;;18.30;52.90;;;;;;5001927;28;20281;-53
2023/01/15 02:35:40;;;;;;;;;;;18.50;52.90;;;;;;5010140;28;22282;-53
2023/01/15 02:38:06;;;;;;;;;;;18.60;52.60;;;;;;5022843;28;19924;-54
2023/01/15 02:40:31;;;;;;;;;;;18.70;52.20;;;;;;5057664;28;19973;-53
2023/01/15 02:42:57;;;;;;;;;;;18.80;52.10;;;;;;5014912;28;19914;-53
2023/01/15 02:45:25;;;;;;;;;;;18.80;51.90;;;;;;5050548;28;19913;-54
2023/01/15 02:47:54;;;;;;;;;;;18.80;51.70;;;;;;5013056;28;19968;-53
2023/01/15 02:50:21;;;;;;;;;;;18.70;51.90;;;;;;5050537;28;20412;-54
2023/01/15 02:52:48;;;;;;;;;;;18.70;51.80;;;;;;5034140;28;19921;-53
2023/01/15 02:55:18;;;;;;;;;;;18.70;51.90;;;;;;5027979;28;20008;-53
2023/01/15 02:57:44;;;;;;;;;;;18.70;52.00;;;;;;5067007;28;19941;-53
2023/01/15 03:00:10;;;;;;;;;;;18.80;52.00;;;;;;5027089;28;20389;-53
2023/01/15 03:02:35;;;;;;;;;;;18.80;52.00;;;;;;5035510;28;19995;-54
2023/01/15 03:05:04;;;;;;;;;;;18.70;51.90;;;;;;5024873;28;20402;-53
2023/01/15 03:07:36;;;;;;;;;;;18.70;51.90;;;;;;5009276;28;19989;-54
2023/01/15 03:10:02;;;;;;;;;;;18.70;51.90;;;;;;5044064;28;20369;-53
2023/01/15 03:13:01;;;;;;;;;;;18.70;52.00;;;;;;5042604;28;19913;-53
2023/01/15 03:16:33;;;;;;;;;;;18.60;51.90;;;;;;5037048;28;19913;-54
2023/01/15 03:18:07;;;;;;;;;;;18.60;52.10;;;;;;5014657;28;19921;-53
2023/01/15 03:20:33;;;;;;;;;;;18.60;52.20;;;;;;5037028;28;19918;-54
2023/01/15 03:22:59;;;;;;;;;;;18.60;52.20;;;;;;5036432;28;19944;-53
2023/01/15 03:25:27;;;;;;;;;;;18.50;52.20;;;;;;5041994;28;20297;-53
2023/01/15 03:27:54;;;;;;;;;;;18.50;52.30;;;;;;5047317;28;19913;-53
2023/01/15 03:30:20;;;;;;;;;;;18.50;52.30;;;;;;5055657;28;19928;-53
2023/01/15 03:32:45;;;;;;;;;;;18.50;52.30;;;;;;5015288;28;20365;-53
2023/01/15 03:35:29;;;;;;;;;;;18.50;52.30;;;;;;5015079;28;19975;-53
2023/01/15 03:37:55;;;;;;;;;;;18.40;52.30;;;;;;5015429;28;19960;-53
2023/01/15 03:40:20;;;;;;;;;;;18.40;52.30;;;;;;5011747;28;20365;-53
2023/01/15 03:42:48;;;;;;;;;;;18.40;52.40;;;;;;5012830;28;20340;-53
2023/01/15 03:45:25;;;;;;;;;;;18.30;52.30;;;;;;5003592;28;20016;-53
2023/01/15 03:48:09;;;;;;;;;;;18.30;52.40;;;;;;5027377;28;19914;-53
2023/01/15 03:50:37;;;;;;;;;;;18.30;52.40;;;;;;4994849;28;19914;-53
2023/01/15 03:53:22;;;;;;;;;;;18.30;52.50;;;;;;5027009;28;19910;-53
2023/01/15 03:55:52;;;;;;;;;;;18.30;52.60;;;;;;4994862;28;19968;-53
2023/01/15 03:58:20;;;;;;;;;;;18.20;52.50;;;;;;5043265;28;19963;-53
2023/01/15 04:00:49;;;;;;;;;;;18.20;52.60;;;;;;5028711;28;19913;-53
2023/01/15 04:03:15;;;;;;;;;;;18.10;52.50;;;;;;5033168;28;19909;-53
2023/01/15 04:05:40;;;;;;;;;;;18.20;52.70;;;;;;5034013;28;19916;-53
2023/01/15 04:08:06;;;;;;;;;;;18.20;52.70;;;;;;5012733;28;19937;-53
2023/01/15 04:10:31;;;;;;;;;;;18.10;52.60;;;;;;5006862;28;20309;-53
2023/01/15 04:12:56;;;;;;;;;;;18.10;52.70;;;;;;5013524;28;19917;-53
2023/01/15 04:15:22;;;;;;;;;;;18.10;52.70;;;;;;5010727;28;20424;-53
2023/01/15 04:17:47;;;;;;;;;;;18.10;52.70;;;;;;5014827;28;19916;-53
2023/01/15 04:20:13;;;;;;;;;;;18.00;52.70;;;;;;5004324;28;20012;-52
2023/01/15 04:22:38;;;;;;;;;;;18.00;52.60;;;;;;4994630;28;19922;-53
2023/01/15 04:25:04;;;;;;;;;;;18.00;52.70;;;;;;4994464;28;19914;-53
2023/01/15 04:27:29;;;;;;;;;;;18.00;52.70;;;;;;5001043;28;20004;-53
2023/01/15 04:29:55;;;;;;;;;;;18.00;52.70;;;;;;5002770;28;19956;-53
2023/01/15 04:32:20;;;;;;;;;;;18.00;52.70;;;;;;5011768;28;19924;-53
2023/01/15 04:34:46;;;;;;;;;;;18.00;52.80;;;;;;5009553;28;19926;-53
2023/01/15 04:37:12;;;;;;;;;;;18.00;52.50;;;;;;4997789;28;19921;-53
2023/01/15 04:39:38;;;;;;;;;;;18.00;52.50;;;;;;5009976;28;19939;-53
2023/01/15 04:44:47;;;;;;;;;;;18.00;52.60;;;;;;5007370;28;19916;-53
2023/01/15 04:47:13;;;;;;;;;;;18.00;52.40;;;;;;5009340;28;19910;-53
2023/01/15 04:49:38;;;;;;;;;;;18.00;52.50;;;;;;5013471;28;19913;-53
2023/01/15 04:52:04;;;;;;;;;;;18.10;52.50;;;;;;5013308;28;19909;-53
2023/01/15 04:54:29;;;;;;;;;;;18.00;52.40;;;;;;4998170;28;19965;-53
2023/01/15 04:56:55;;;;;;;;;;;18.10;52.30;;;;;;4993706;28;19910;-53
2023/01/15 04:59:21;;;;;;;;;;;18.00;52.30;;;;;;4997793;28;20004;-53
2023/01/15 05:01:46;;;;;;;;;;;18.10;52.20;;;;;;5005335;28;19917;-52
2023/01/15 05:04:12;;;;;;;;;;;18.10;52.30;;;;;;5009629;28;19967;-52
2023/01/15 05:06:37;;;;;;;;;;;18.00;52.20;;;;;;5013206;28;19909;-52
2023/01/15 05:09:03;;;;;;;;;;;18.00;52.30;;;;;;5007693;28;19957;-52
2023/01/15 05:11:28;;;;;;;;;;;18.00;52.30;;;;;;5008960;28;19914;-52
2023/01/15 05:13:54;;;;;;;;;;;18.00;52.30;;;;;;5006577;28;20016;-51
2023/01/15 05:16:20;;;;;;;;;;;18.00;52.40;;;;;;5010190;28;19914;-54
2023/01/15 05:18:46;;;;;;;;;;;18.00;52.30;;;;;;4998173;28;19941;-52
2023/01/15 05:21:19;;;;;;;;;;;18.00;52.30;;;;;;5007863;28;20367;-54
2023/01/15 05:23:45;;;;;;;;;;;18.00;52.30;;;;;;4995982;28;19922;-52
2023/01/15 05:26:10;;;;;;;;;;;18.00;52.30;;;;;;4992964;28;19913;-52
2023/01/15 05:28:36;;;;;;;;;;;18.00;52.20;;;;;;5008653;28;19913;-52
2023/01/15 05:31:08;;;;;;;;;;;18.00;52.30;;;;;;5007927;28;19975;-54
2023/01/15 05:33:33;;;;;;;;;;;17.90;52.10;;;;;;5012317;28;19921;-51
2023/01/15 05:36:03;;;;;;;;;;;17.90;52.20;;;;;;5004666;28;19914;-54
2023/01/15 05:38:28;;;;;;;;;;;17.90;52.20;;;;;;5017725;28;19910;-52
2023/01/15 05:40:53;;;;;;;;;;;17.90;52.20;;;;;;5010728;28;19920;-52
2023/01/15 05:43:19;;;;;;;;;;;17.90;52.20;;;;;;5008104;28;20346;-52
2023/01/15 05:45:44;;;;;;;;;;;18.00;52.20;;;;;;4998643;28;19993;-52
2023/01/15 05:48:10;;;;;;;;;;;17.90;52.20;;;;;;5042526;28;19938;-52
2023/01/15 05:50:35;;;;;;;;;;;17.90;52.20;;;;;;4993583;28;19980;-52
2023/01/15 05:53:01;;;;;;;;;;;17.90;52.20;;;;;;5013280;28;19979;-52
2023/01/15 05:55:26;;;;;;;;;;;17.90;52.10;;;;;;5007766;28;19932;-52
2023/01/15 05:57:51;;;;;;;;;;;17.90;52.10;;;;;;5018485;28;19925;-52
2023/01/15 06:00:17;;;;;;;;;;;17.90;52.00;;;;;;4999276;28;19913;-54
2023/01/15 06:02:43;;;;;;;;;;;17.90;52.10;;;;;;4993966;28;19968;-54
2023/01/15 06:05:08;;;;;;;;;;;17.90;52.00;;;;;;4992930;28;20285;-52
2023/01/15 06:07:34;;;;;;;;;;;17.90;52.10;;;;;;4997710;28;20238;-52
2023/01/15 06:09:59;;;;;;;;;;;17.90;52.20;;;;;;5003355;28;19917;-52
2023/01/15 06:12:24;;;;;;;;;;;17.80;52.10;;;;;;5008854;28;19913;-54
2023/01/15 06:14:50;;;;;;;;;;;17.90;52.20;;;;;;5001352;28;19965;-52
2023/01/15 06:17:15;;;;;;;;;;;17.90;52.10;;;;;;4992916;28;19918;-52
2023/01/15 06:19:41;;;;;;;;;;;17.90;52.00;;;;;;5000962;28;19917;-52
2023/01/15 06:22:06;;;;;;;;;;;17.80;51.90;;;;;;5011796;28;20381;-52
2023/01/15 06:24:32;;;;;;;;;;;17.80;52.10;;;;;;5009746;28;20418;-52
2023/01/15 06:26:57;;;;;;;;;;;17.80;52.00;;;;;;5002559;28;19914;-52
2023/01/15 06:29:22;;;;;;;;;;;17.80;52.00;;;;;;4995161;28;19967;-52
2023/01/15 06:31:48;;;;;;;;;;;17.80;52.00;;;;;;5007615;28;20172;-52
2023/01/15 06:34:13;;;;;;;;;;;17.70;52.00;;;;;;5015130;28;19960;-52
2023/01/15 06:36:39;;;;;;;;;;;17.80;52.10;;;;;;5024099;28;19959;-52
2023/01/15 06:39:04;;;;;;;;;;;17.80;52.00;;;;;;5021419;28;19917;-52
2023/01/15 06:47:44;;;;;;;;;;;17.70;52.00;;;;;;5017087;28;19920;-53
2023/01/15 06:49:50;;;;;;;;;;;17.80;51.90;;;;;;5016494;28;19964;-52
2023/01/15 06:52:15;;;;;;;;;;;17.80;51.80;;;;;;5007718;28;19913;-53
2023/01/15 06:54:41;;;;;;;;;;;17.80;51.80;;;;;;5019106;28;20333;-53
2023/01/15 06:57:06;;;;;;;;;;;17.80;51.80;;;;;;5021291;28;19936;-53
2023/01/15 06:59:32;;;;;;;;;;;17.80;51.70;;;;;;5011560;28;19932;-52
2023/01/15 07:01:57;;;;;;;;;;;17.80;51.80;;;;;;5033400;28;20007;-53
2023/01/15 07:04:23;;;;;;;;;;;17.80;51.60;;;;;;5010369;28;19914;-52
2023/01/15 07:06:48;;;;;;;;;;;17.70;51.80;;;;;;5007617;28;19914;-52
2023/01/15 07:09:14;;;;;;;;;;;17.70;51.70;;;;;;5009427;28;20000;-52
2023/01/15 07:11:48;;;;;;;;;;;17.70;51.70;;;;;;5009558;28;19921;-52
2023/01/15 07:14:23;;;;;;;;;;;17.60;51.70;;;;;;5030259;28;20361;-51
2023/01/15 07:16:49;;;;;;;;;;;17.70;51.70;;;;;;5016555;28;19992;-54
2023/01/15 07:19:14;;;;;;;;;;;17.70;51.80;;;;;;5011144;28;20086;-54
2023/01/15 07:21:40;;;;;;;;;;;17.70;51.80;;;;;;5006799;28;19967;-54
2023/01/15 07:24:06;;;;;;;;;;;17.70;51.70;;;;;;5013319;28;20487;-53
2023/01/15 07:26:31;;;;;;;;;;;17.70;51.60;;;;;;5046925;28;19975;-53
2023/01/15 07:28:56;;;;;;;;;;;17.70;51.70;;;;;;5009042;28;20361;-53
2023/01/15 07:31:22;;;;;;;;;;;17.70;51.70;;;;;;5009932;28;20381;-53
2023/01/15 07:33:47;;;;;;;;;;;17.60;51.60;;;;;;5000912;28;20293;-53
2023/01/15 07:36:13;;;;;;;;;;;17.60;51.70;;;;;;5013363;28;19917;-53
2023/01/15 07:38:38;;;;;;;;;;;17.60;51.50;;;;;;5012391;28;19921;-53
2023/01/15 07:52:00;;;;;;;;;;;17.70;51.30;;;;;;5026451;28;19920;-53
2023/01/15 07:54:26;;;;;;;;;;;17.70;51.30;;;;;;5013932;28;19918;-53
2023/01/15 07:56:52;;;;;;;;;;;17.70;51.20;;;;;;5012285;28;19925;-53
2023/01/15 07:59:17;;;;;;;;;;;17.70;51.20;;;;;;5011994;28;19917;-53
2023/01/15 08:01:43;;;;;;;;;;;17.70;51.20;;;;;;5012359;28;20004;-53
2023/01/15 08:04:08;;;;;;;;;;;17.70;51.10;;;;;;5005319;28;19918;-53
2023/01/15 08:06:34;;;;;;;;;;;17.70;51.20;;;;;;5011628;28;20357;-53
2023/01/15 08:09:00;;;;;;;;;;;17.70;51.30;;;;;;5011677;28;20294;-53
2023/01/15 08:16:53;;;;;;;;;;;17.70;51.30;;;;;;5022083;28;20377;-53
2023/01/15 08:19:18;;;;;;;;;;;17.60;51.20;;;;;;5009855;28;19918;-53
2023/01/15 08:21:44;;;;;;;;;;;17.60;51.30;;;;;;4995514;28;19949;-53
2023/01/15 08:24:09;;;;;;;;;;;17.50;51.40;;;;;;5014336;28;20267;-53
2023/01/15 08:26:35;;;;;;;;;;;17.60;51.30;;;;;;5010531;28;20271;-53
2023/01/15 08:29:00;;;;;;;;;;;17.60;51.30;;;;;;5010890;28;20333;-53
2023/01/15 08:31:26;;;;;;;;;;;17.50;51.40;;;;;;5000344;28;21590;-53
2023/01/15 08:33:51;;;;;;;;;;;17.50;51.40;;;;;;5018021;28;19921;-53
2023/01/15 08:36:17;;;;;;;;;;;17.60;51.50;;;;;;5013874;28;19917;-53
2023/01/15 08:38:42;;;;;;;;;;;17.50;51.50;;;;;;5012391;28;20015;-53
2023/01/15 08:41:08;;;;;;;;;;;17.50;51.50;;;;;;5005298;28;19971;-53
2023/01/15 08:43:33;;;;;;;;;;;17.50;51.40;;;;;;5018836;28;19914;-53
2023/01/15 08:45:59;;;;;;;;;;;17.50;51.70;;;;;;5001202;28;19969;-53
2023/01/15 08:48:25;;;;;;;;;;;17.50;51.60;;;;;;5014202;28;20281;-53
2023/01/15 08:50:50;;;;;;;;;;;17.40;51.60;;;;;;5032856;28;19960;-53
2023/01/15 08:53:17;;;;;;;;;;;17.40;51.50;;;;;;5017598;28;19925;-53
2023/01/15 08:55:43;;;;;;;;;;;17.40;51.40;;;;;;4995093;28;19914;-53
2023/01/15 08:58:09;;;;;;;;;;;17.40;51.50;;;;;;5013870;28;20419;-53
2023/01/15 09:00:34;;;;;;;;;;;17.40;51.40;;;;;;5020641;28;19944;-53
2023/01/15 09:03:00;;;;;;;;;;;17.40;51.30;;;;;;4995476;28;19936;-53
2023/01/15 09:05:26;;;;;;;;;;;17.40;51.40;;;;;;5016042;28;20000;-53
2023/01/15 09:07:52;;;;;;;;;;;17.40;51.50;;;;;;5013948;28;19913;-53
2023/01/15 09:10:18;;;;;;;;;;;17.40;51.40;;;;;;5010839;28;19937;-53
2023/01/15 09:12:43;;;;;;;;;;;17.40;51.50;;;;;;4999450;28;19949;-53
2023/01/15 09:15:09;;;;;;;;;;;17.40;51.30;;;;;;5012774;28;19917;-53
2023/01/15 09:17:39;;;;;;;;;;;17.40;51.40;;;;;;4996962;28;19921;-53
2023/01/15 09:20:05;;;;;;;;;;;17.40;51.20;;;;;;5009172;28;20421;-53
2023/01/15 09:22:31;;;;;;;;;;;17.40;51.10;;;;;;5007435;28;19921;-53
2023/01/15 09:24:56;;;;;;;;;;;17.40;51.10;;;;;;4997581;28;20008;-53
2023/01/15 09:27:21;;;;;;;;;;;17.40;51.00;;;;;;5013841;28;19967;-53
2023/01/15 09:29:47;;;;;;;;;;;17.40;51.00;;;;;;5032658;28;19916;-53
2023/01/15 09:32:13;;;;;;;;;;;17.50;51.00;;;;;;5010420;28;19920;-53
2023/01/15 09:34:38;;;;;;;;;;;17.50;50.80;;;;;;5007769;28;19913;-52
2023/01/15 09:37:04;;;;;;;;;;;17.50;50.80;;;;;;5008916;28;19909;-53
2023/01/15 09:39:29;;;;;;;;;;;17.60;50.80;;;;;;5017590;28;20401;-53
2023/01/15 09:42:04;;;;;;;;;;;17.60;50.60;;;;;;5012705;28;20390;-54
2023/01/15 09:44:32;;;;;;;;;;;17.60;50.50;;;;;;4993382;28;19910;-53
2023/01/15 09:47:07;;;;;;;;;;;17.70;50.50;;;;;;5018117;28;20009;-53
2023/01/15 09:49:42;;;;;;;;;;;17.70;50.40;;;;;;4999554;28;20377;-53
2023/01/15 09:52:20;;;;;;;;;;;17.70;50.40;;;;;;5005108;28;19971;-53
2023/01/15 09:54:49;;;;;;;;;;;17.70;50.30;;;;;;5021070;28;19924;-53
2023/01/15 09:57:15;;;;;;;;;;;17.70;50.30;;;;;;5008706;28;19921;-54
2023/01/15 09:59:44;;;;;;;;;;;17.70;50.20;;;;;;5026733;28;19917;-53
2023/01/15 10:02:30;;;;;;;;;;;17.80;50.40;;;;;;5044409;28;19972;-53
2023/01/15 10:05:16;;;;;;;;;;;17.70;50.40;;;;;;5010521;28;19949;-53
2023/01/15 10:07:43;;;;;;;;;;;17.70;50.50;;;;;;5017830;28;19921;-53
2023/01/15 10:10:16;;;;;;;;;;;17.70;50.50;;;;;;5036365;28;19913;-53
2023/01/15 10:12:43;;;;;;;;;;;17.60;50.50;;;;;;5014468;28;20503;-54
2023/01/15 10:15:12;;;;;;;;;;;17.60;50.60;;;;;;5043259;28;19944;-53
2023/01/15 10:17:46;;;;;;;;;;;17.60;50.70;;;;;;5026225;28;19913;-53
2023/01/15 10:20:15;;;;;;;;;;;17.50;50.80;;;;;;5016653;28;19921;-53
2023/01/15 10:22:46;;;;;;;;;;;17.60;50.80;;;;;;5001766;28;19933;-53
2023/01/15 10:25:13;;;;;;;;;;;17.60;50.80;;;;;;5015342;28;19929;-53
2023/01/15 10:27:39;;;;;;;;;;;17.50;50.80;;;;;;5018337;28;19909;-53
2023/01/15 10:30:05;;;;;;;;;;;17.50;50.80;;;;;;5009627;28;20373;-53
2023/01/15 10:32:31;;;;;;;;;;;17.50;50.90;;;;;;5043076;28;19924;-53
2023/01/15 10:35:15;;;;;;;;;;;17.50;50.90;;;;;;5010899;28;19913;-53
2023/01/15 10:37:55;;;;;;;;;;;17.50;51.00;;;;;;5014927;28;20841;-53
2023/01/15 10:40:33;;;;;;;;;;;17.50;51.00;;;;;;5008886;28;19926;-53
2023/01/15 10:43:13;;;;;;;;;;;17.50;51.00;;;;;;5012586;28;20433;-53
2023/01/15 10:45:40;;;;;;;;;;;17.50;50.90;;;;;;5011207;28;19910;-52
2023/01/15 10:48:10;;;;;;;;;;;17.40;50.90;;;;;;5013901;28;20410;-53
2023/01/15 10:50:35;;;;;;;;;;;17.50;50.90;;;;;;5011818;28;20354;-53
2023/01/15 10:53:01;;;;;;;;;;;17.40;50.90;;;;;;5014693;28;19929;-52
2023/01/15 10:55:28;;;;;;;;;;;17.40;50.90;;;;;;5012510;28;19922;-52
2023/01/15 10:57:56;;;;;;;;;;;17.40;50.90;;;;;;5011238;28;20320;-52
2023/01/15 11:00:23;;;;;;;;;;;17.30;50.90;;;;;;5030037;28;19941;-52
2023/01/15 11:02:50;;;;;;;;;;;17.40;51.00;;;;;;5014010;28;19913;-53
2023/01/15 11:05:16;;;;;;;;;;;17.40;50.80;;;;;;5012477;28;19909;-52
2023/01/15 11:07:45;;;;;;;;;;;17.40;50.90;;;;;;5014749;28;19921;-52
2023/01/15 11:10:13;;;;;;;;;;;17.40;50.90;;;;;;5011612;28;19913;-52
2023/01/15 11:20:59;;;;;;;;;;;17.40;50.70;;;;;;5040034;28;19926;-52
2023/01/15 11:23:24;;;;;;;;;;;17.40;50.80;;;;;;5003903;28;19921;-53
2023/01/15 11:25:54;;;;;;;;;;;17.40;50.70;;;;;;5023881;28;19913;-52
2023/01/15 11:28:39;;;;;;;;;;;17.40;50.60;;;;;;5014004;28;19960;-52
2023/01/15 11:31:04;;;;;;;;;;;17.50;50.60;;;;;;5060320;28;19940;-52
2023/01/15 11:33:31;;;;;;;;;;;17.50;50.50;;;;;;5030029;28;20400;-52
2023/01/15 11:35:57;;;;;;;;;;;17.50;50.60;;;;;;5004201;28;19933;-52
2023/01/15 11:38:23;;;;;;;;;;;17.60;50.60;;;;;;5005566;28;20266;-52
2023/01/15 11:40:56;;;;;;;;;;;18.10;49.80;;;;;;4998216;28;19925;-52
2023/01/15 11:52:02;;;;;;;;;;;21.30;43.80;;;;;;5008949;28;20408;-52
2023/01/15 11:54:27;;;;;;;;;;;21.60;43.30;;;;;;5005766;28;19913;-52
2023/01/15 11:56:52;;;;;;;;;;;21.80;42.90;;;;;;5033388;28;19920;-51
2023/01/15 11:59:18;;;;;;;;;;;22.10;42.40;;;;;;5002264;28;20358;-51
2023/01/15 12:01:56;;;;;;;;;;;22.30;42.10;;;;;;5032276;28;19983;-51
2023/01/15 12:04:35;;;;;;;;;;;22.50;42.00;;;;;;5027308;28;19918;-52
2023/01/15 12:07:01;;;;;;;;;;;22.60;41.60;;;;;;5033224;28;19914;-51
2023/01/15 12:09:45;;;;;;;;;;;22.70;41.50;;;;;;5011435;28;19920;-51
2023/01/15 12:12:26;;;;;;;;;;;22.70;41.30;;;;;;5012637;28;19921;-51
2023/01/15 12:14:57;;;;;;;;;;;22.90;40.90;;;;;;5010048;28;19932;-51
2023/01/15 12:17:23;;;;;;;;;;;23.10;40.80;;;;;;5007986;28;19917;-51
2023/01/15 12:20:01;;;;;;;;;;;23.10;40.80;;;;;;5017902;28;20380;-52
2023/01/15 12:22:46;;;;;;;;;;;23.20;41.00;;;;;;5002498;28;19991;-51
2023/01/15 12:25:11;;;;;;;;;;;23.20;40.70;;;;;;5004062;28;19981;-52
2023/01/15 12:27:43;;;;;;;;;;;23.30;40.70;;;;;;5011366;28;19969;-52
2023/01/15 12:30:13;;;;;;;;;;;23.40;40.70;;;;;;4997555;28;19921;-52
2023/01/15 12:32:40;;;;;;;;;;;23.50;40.60;;;;;;5007784;28;19953;-52
2023/01/15 12:35:17;;;;;;;;;;;23.60;40.60;;;;;;5032790;28;19918;-52
2023/01/15 12:37:44;;;;;;;;;;;23.70;40.60;;;;;;5044573;28;20377;-51
2023/01/15 12:40:18;;;;;;;;;;;23.80;40.60;;;;;;5000337;28;20020;-53
2023/01/15 12:45:40;;;;;;;;;;;23.80;40.60;;;;;;5002554;28;20008;-52
2023/01/15 12:48:24;;;;;;;;;;;23.90;40.60;;;;;;5008363;28;19936;-53
2023/01/15 12:50:53;;;;;;;;;;;23.90;40.80;;;;;;5016000;28;19910;-51
2023/01/15 12:53:18;;;;;;;;;;;23.90;40.90;;;;;;5003267;28;19914;-52
2023/01/15 12:55:54;;;;;;;;;;;23.90;40.90;;;;;;5004175;28;19916;-53
2023/01/15 12:58:32;;;;;;;;;;;24.00;41.00;;;;;;5033036;28;19913;-53
2023/01/15 13:01:02;;;;;;;;;;;24.00;41.10;;;;;;5007201;28;19948;-53
2023/01/15 13:04:06;;;;;;;;;;;24.00;41.00;;;;;;4999727;28;19925;-52
2023/01/15 13:06:32;;;;;;;;;;;24.00;41.10;;;;;;5008365;28;20180;-53
2023/01/15 13:09:02;;;;;;;;;;;24.00;41.10;;;;;;4988869;28;19930;-53
2023/01/15 13:11:28;;;;;;;;;;;24.00;41.10;;;;;;4990964;28;19987;-52
2023/01/15 13:13:59;;;;;;;;;;;24.00;40.90;;;;;;5000188;28;19918;-52
2023/01/15 13:16:39;;;;;;;;;;;24.00;41.20;;;;;;5012446;28;19944;-52
2023/01/15 13:19:23;;;;;;;;;;;23.80;41.40;;;;;;5040897;28;19953;-53
2023/01/15 13:21:51;;;;;;;;;;;23.80;41.60;;;;;;5002165;28;19922;-53
2023/01/15 13:24:28;;;;;;;;;;;23.70;41.50;;;;;;5025474;28;19922;-53
2023/01/15 13:27:12;;;;;;;;;;;23.80;41.50;;;;;;5032782;28;20427;-52
2023/01/15 13:29:41;;;;;;;;;;;23.90;41.40;;;;;;4996232;28;19953;-53
2023/01/15 13:32:12;;;;;;;;;;;24.00;41.30;;;;;;4997978;28;19917;-53
2023/01/15 13:34:40;;;;;;;;;;;24.00;41.30;;;;;;5006690;28;20289;-53
2023/01/15 13:37:12;;;;;;;;;;;24.00;41.20;;;;;;5006386;28;19913;-52
2023/01/15 13:39:39;;;;;;;;;;;24.00;41.30;;;;;;5008203;28;20070;-53
2023/01/15 13:44:49;;;;;;;;;;;24.00;41.30;;;;;;5005997;28;19976;-52
2023/01/15 13:47:22;;;;;;;;;;;24.10;41.30;;;;;;5003362;28;19921;-52
2023/01/15 13:49:52;;;;;;;;;;;24.10;41.10;;;;;;5030950;28;19913;-53
2023/01/15 13:52:22;;;;;;;;;;;24.10;41.20;;;;;;5002625;28;19917;-52
2023/01/15 13:54:48;;;;;;;;;;;24.10;41.20;;;;;;4998853;28;19922;-53
2023/01/15 13:57:35;;;;;;;;;;;24.10;41.20;;;;;;5005960;28;20328;-53
2023/01/15 14:00:04;;;;;;;;;;;24.10;41.20;;;;;;5009556;28;19948;-53
2023/01/15 14:02:34;;;;;;;;;;;24.10;40.90;;;;;;5007231;28;20013;-52
2023/01/15 14:05:10;;;;;;;;;;;24.10;40.90;;;;;;5033781;28;19971;-52
2023/01/15 14:07:36;;;;;;;;;;;24.20;41.10;;;;;;5000052;28;20440;-53
2023/01/15 14:10:16;;;;;;;;;;;24.20;40.90;;;;;;5003116;28;19925;-52
2023/01/15 14:12:49;;;;;;;;;;;24.20;40.70;;;;;;5015508;28;19940;-52
2023/01/15 14:15:36;;;;;;;;;;;24.30;40.80;;;;;;5038042;28;19944;-53
2023/01/15 14:18:20;;;;;;;;;;;24.30;40.70;;;;;;5009933;28;19972;-53
2023/01/15 14:20:58;;;;;;;;;;;24.30;40.70;;;;;;5011858;28;19914;-53
2023/01/15 14:23:32;;;;;;;;;;;24.30;40.80;;;;;;5044191;28;19925;-53
2023/01/15 14:26:07;;;;;;;;;;;24.30;40.70;;;;;;5010739;28;19959;-52
2023/01/15 14:28:41;;;;;;;;;;;24.30;40.60;;;;;;4994475;28;19921;-53
2023/01/15 14:31:12;;;;;;;;;;;24.30;40.70;;;;;;4996469;28;19924;-53
2023/01/15 14:33:45;;;;;;;;;;;24.40;40.50;;;;;;5009440;28;19921;-53
2023/01/15 14:36:14;;;;;;;;;;;24.30;40.40;;;;;;5026312;28;20011;-53
2023/01/15 14:38:44;;;;;;;;;;;24.40;40.40;;;;;;5024247;28;20386;-53
2023/01/15 14:41:11;;;;;;;;;;;24.30;40.60;;;;;;4992395;28;19916;-53
2023/01/15 14:43:40;;;;;;;;;;;24.30;40.50;;;;;;5037766;28;19914;-53
2023/01/15 14:46:11;;;;;;;;;;;24.40;40.50;;;;;;5027961;28;19918;-53
2023/01/15 14:48:38;;;;;;;;;;;24.40;40.30;;;;;;5041136;28;19959;-53
2023/01/15 14:51:13;;;;;;;;;;;24.40;40.30;;;;;;5002383;28;20298;-53
2023/01/15 14:53:41;;;;;;;;;;;24.40;40.30;;;;;;5027810;28;19933;-53
2023/01/15 14:56:11;;;;;;;;;;;24.50;40.30;;;;;;5006066;28;20317;-53
2023/01/15 14:58:47;;;;;;;;;;;24.50;40.20;;;;;;5012125;28;19923;-53
2023/01/15 15:01:14;;;;;;;;;;;24.50;40.20;;;;;;4996859;28;19917;-53
2023/01/15 15:03:43;;;;;;;;;;;24.50;40.00;;;;;;4995979;28;20290;-53
2023/01/15 15:06:08;;;;;;;;;;;24.50;40.10;;;;;;5027272;28;19961;-52
2023/01/15 15:08:34;;;;;;;;;;;24.50;40.10;;;;;;5036007;28;19949;-52
2023/01/15 15:10:59;;;;;;;;;;;24.40;40.20;;;;;;5004087;28;19914;-52
2023/01/15 15:13:43;;;;;;;;;;;24.40;40.20;;;;;;5015268;28;19909;-52
2023/01/15 15:16:15;;;;;;;;;;;24.50;40.30;;;;;;5040438;28;19917;-54
2023/01/15 15:18:41;;;;;;;;;;;24.50;40.30;;;;;;5038842;28;19918;-54
2023/01/15 15:21:08;;;;;;;;;;;24.50;40.20;;;;;;5005805;28;20286;-54